Alliance, Canada
Current Conditions -  °F | °C
As of 12:00 PM on Sunday 21 Dec 2014 (Local Time) from CYQF Reporting Station
Broken Clouds Broken Clouds  
Wind Chill: 27°   Ceiling: 15000
Heat Index: 27°   Visibility: 15mi
Dew Point: 19°   Wind: 3mph
Humidity: 74%   Direction: 220°SW
Pressure: 29.36"   Gusts: NA
Location:  52.43°N, 111.78°W
Report Text: CYQF 211900Z 22003KT 15SM FEW080 BKN150 BKN230 M03/M07 A2936 RMK AC1AC4CI2 SLP985
Loading
Personal Weather Stations






























Interactive Weather Map New forecast layout! Learn more

10-Day Weather Forecast

Advertisements
Track Severe Weather on mobile